Time;durP1;ratioP1;P1;durP2;ratioP2;P2;SDS_P1;SDS_P2;PMS_P1;PMS_P2;Temp;Humidity;BMP_temperature;BMP_pressure;BME280_temperature;BME280_humidity;BME280_pressure;Samples;Min_cycle;Max_cycle;Signal;HPM_P1;HPM_P2
2022/05/26 00:02:05;;;;;;;;;;;15.40;99.90;;;;;;5051079;28;19980;-66
2022/05/26 00:04:32;;;;;;;;;;;15.40;99.90;;;;;;5051435;28;20331;-65
2022/05/26 00:06:59;;;;;;;;;;;15.30;99.90;;;;;;5051654;28;20389;-64
2022/05/26 00:09:26;;;;;;;;;;;15.40;99.90;;;;;;5051302;28;19932;-65
2022/05/26 00:11:53;;;;;;;;;;;15.20;99.90;;;;;;5051957;28;20412;-64
2022/05/26 00:14:20;;;;;;;;;;;15.10;99.90;;;;;;5051203;28;19925;-66
2022/05/26 00:16:47;;;;;;;;;;;15.10;99.90;;;;;;5051442;28;19925;-65
2022/05/26 00:19:16;;;;;;;;;;;15.10;99.90;;;;;;5051070;28;19932;-64
2022/05/26 00:21:43;;;;;;;;;;;15.10;99.90;;;;;;5051427;28;19924;-65
2022/05/26 00:24:10;;;;;;;;;;;15.10;99.90;;;;;;5051217;28;19951;-64
2022/05/26 00:26:37;;;;;;;;;;;15.10;99.90;;;;;;5051699;28;19979;-65
2022/05/26 00:29:03;;;;;;;;;;;15.00;99.90;;;;;;5051126;28;19925;-66
2022/05/26 00:31:30;;;;;;;;;;;15.10;99.90;;;;;;5051116;28;19959;-65
2022/05/26 00:33:57;;;;;;;;;;;15.10;99.90;;;;;;5050970;28;19929;-65
2022/05/26 00:36:38;;;;;;;;;;;15.10;99.90;;;;;;5051179;28;19929;-64
2022/05/26 00:39:06;;;;;;;;;;;15.00;99.90;;;;;;5050966;28;20348;-65
2022/05/26 00:41:33;;;;;;;;;;;14.90;99.90;;;;;;5050891;28;19937;-65
2022/05/26 00:44:00;;;;;;;;;;;14.90;99.90;;;;;;5050786;28;19925;-64
2022/05/26 00:46:32;;;;;;;;;;;15.00;99.90;;;;;;5051225;28;19928;-65
2022/05/26 00:49:00;;;;;;;;;;;15.10;99.90;;;;;;5050619;28;19951;-63
2022/05/26 00:51:29;;;;;;;;;;;15.00;99.90;;;;;;5050689;28;19929;-65
2022/05/26 00:53:58;;;;;;;;;;;15.00;99.90;;;;;;5050427;28;20454;-65
2022/05/26 00:56:27;;;;;;;;;;;15.00;99.90;;;;;;5050790;28;19932;-65
2022/05/26 00:58:55;;;;;;;;;;;15.00;99.90;;;;;;5050426;28;19924;-65
2022/05/26 01:01:22;;;;;;;;;;;15.00;99.90;;;;;;5050283;28;20292;-65
2022/05/26 01:03:51;;;;;;;;;;;15.00;99.90;;;;;;5050428;28;19933;-65
2022/05/26 01:06:20;;;;;;;;;;;15.00;99.90;;;;;;5050819;28;19936;-65
2022/05/26 01:08:50;;;;;;;;;;;15.00;99.90;;;;;;5060320;28;19924;-64
2022/05/26 01:11:17;;;;;;;;;;;15.10;99.90;;;;;;5070307;28;19970;-64
2022/05/26 01:13:47;;;;;;;;;;;15.10;99.90;;;;;;5070115;28;19932;-64
2022/05/26 01:16:16;;;;;;;;;;;15.00;99.90;;;;;;5070608;28;19924;-65
2022/05/26 01:18:47;;;;;;;;;;;15.10;99.90;;;;;;5070372;28;19928;-65
2022/05/26 01:21:17;;;;;;;;;;;15.10;99.90;;;;;;5069884;28;19928;-65
2022/05/26 01:24:14;;;;;;;;;;;15.10;99.90;;;;;;5070309;28;19982;-64
2022/05/26 01:26:49;;;;;;;;;;;15.10;99.90;;;;;;5070364;28;19970;-65
2022/05/26 01:29:34;;;;;;;;;;;15.10;99.90;;;;;;5069971;28;19978;-64
2022/05/26 01:32:07;;;;;;;;;;;15.10;99.90;;;;;;5070117;28;19930;-64
2022/05/26 01:34:37;;;;;;;;;;;15.10;99.90;;;;;;5069614;28;20394;-65
2022/05/26 01:37:09;;;;;;;;;;;15.10;99.90;;;;;;5070100;28;19947;-64
2022/05/26 01:39:39;;;;;;;;;;;15.00;99.90;;;;;;5069621;28;19986;-65
2022/05/26 01:42:11;;;;;;;;;;;15.00;99.90;;;;;;5069661;28;19928;-65
2022/05/26 01:44:46;;;;;;;;;;;15.10;99.90;;;;;;5068800;28;21311;-65
2022/05/26 01:47:19;;;;;;;;;;;15.10;99.90;;;;;;5069833;28;19924;-65
2022/05/26 01:49:49;;;;;;;;;;;15.10;99.90;;;;;;5069808;28;19924;-65
2022/05/26 01:52:18;;;;;;;;;;;15.20;99.90;;;;;;5069967;28;19925;-65
2022/05/26 01:54:49;;;;;;;;;;;15.20;99.90;;;;;;5069640;28;19925;-64
2022/05/26 01:57:19;;;;;;;;;;;15.10;99.90;;;;;;5069242;28;19928;-64
2022/05/26 01:59:47;;;;;;;;;;;15.10;99.90;;;;;;5069713;28;19928;-63
2022/05/26 02:02:18;;;;;;;;;;;15.10;99.90;;;;;;5069533;28;19924;-65
2022/05/26 02:04:48;;;;;;;;;;;15.20;99.90;;;;;;5069826;28;19968;-65
2022/05/26 02:07:18;;;;;;;;;;;15.10;99.90;;;;;;5069682;28;19929;-65
2022/05/26 02:09:45;;;;;;;;;;;15.10;99.90;;;;;;5069385;28;19928;-64
2022/05/26 02:12:16;;;;;;;;;;;15.00;99.90;;;;;;5069436;28;19929;-65
2022/05/26 02:14:44;;;;;;;;;;;15.00;99.90;;;;;;5069493;28;19925;-64
2022/05/26 02:17:13;;;;;;;;;;;15.00;99.90;;;;;;5069400;28;20400;-64
2022/05/26 02:19:43;;;;;;;;;;;14.90;99.90;;;;;;5069492;28;20364;-65
2022/05/26 02:22:15;;;;;;;;;;;14.90;99.90;;;;;;5069594;28;19932;-65
2022/05/26 02:24:44;;;;;;;;;;;14.90;99.90;;;;;;5069319;28;20111;-65
2022/05/26 02:27:11;;;;;;;;;;;14.80;99.90;;;;;;5073341;28;19928;-64
2022/05/26 02:29:55;;;;;;;;;;;14.90;99.90;;;;;;5073454;28;19932;-64
2022/05/26 02:32:32;;;;;;;;;;;14.90;99.90;;;;;;5073468;28;20299;-65
2022/05/26 02:35:01;;;;;;;;;;;14.90;99.90;;;;;;5073282;28;19928;-65
2022/05/26 02:37:31;;;;;;;;;;;14.80;99.90;;;;;;5072696;28;19935;-64
2022/05/26 02:39:58;;;;;;;;;;;14.80;99.90;;;;;;5072898;28;19925;-64
2022/05/26 02:42:25;;;;;;;;;;;14.80;99.90;;;;;;5073366;28;19925;-64
2022/05/26 02:44:52;;;;;;;;;;;14.90;99.90;;;;;;5073353;28;19929;-65
2022/05/26 02:47:33;;;;;;;;;;;14.80;99.90;;;;;;5073325;28;19924;-65
2022/05/26 02:50:09;;;;;;;;;;;14.80;99.90;;;;;;5072632;28;20221;-64
2022/05/26 02:52:43;;;;;;;;;;;14.80;99.90;;;;;;5065887;28;19924;-65
2022/05/26 02:55:13;;;;;;;;;;;14.80;99.90;;;;;;5052878;28;19925;-64
2022/05/26 02:57:50;;;;;;;;;;;14.80;99.90;;;;;;5053085;28;19932;-65
2022/05/26 03:00:19;;;;;;;;;;;14.80;99.90;;;;;;5052775;28;20018;-65
2022/05/26 03:02:52;;;;;;;;;;;14.80;99.90;;;;;;5053231;28;19928;-64
2022/05/26 03:05:20;;;;;;;;;;;14.70;99.90;;;;;;5052591;28;19925;-65
2022/05/26 03:07:50;;;;;;;;;;;14.80;99.90;;;;;;5052925;28;19929;-65
2022/05/26 03:10:18;;;;;;;;;;;14.80;99.90;;;;;;5052417;28;20346;-65
2022/05/26 03:12:44;;;;;;;;;;;14.80;99.90;;;;;;5052887;28;19932;-65
2022/05/26 03:15:11;;;;;;;;;;;14.70;99.90;;;;;;5052481;28;20327;-65
2022/05/26 03:17:38;;;;;;;;;;;14.80;99.90;;;;;;5052639;28;19929;-66
2022/05/26 03:20:05;;;;;;;;;;;14.70;99.90;;;;;;5052517;28;19928;-64
2022/05/26 03:22:32;;;;;;;;;;;14.80;99.90;;;;;;5052449;28;19925;-65
2022/05/26 03:25:00;;;;;;;;;;;14.80;99.90;;;;;;5052285;28;20293;-65
2022/05/26 03:27:27;;;;;;;;;;;14.80;99.90;;;;;;5052388;28;20303;-65
2022/05/26 03:29:55;;;;;;;;;;;14.70;99.90;;;;;;5052131;28;19929;-65
2022/05/26 03:32:23;;;;;;;;;;;14.70;99.90;;;;;;5052375;28;19932;-65
2022/05/26 03:43:05;;;;;;;;;;;14.80;99.90;;;;;;5052080;28;19925;-65
2022/05/26 03:45:33;;;;;;;;;;;14.70;99.90;;;;;;5052026;28;19925;-65
2022/05/26 03:48:00;;;;;;;;;;;14.70;99.90;;;;;;5052238;28;20002;-65
2022/05/26 03:50:27;;;;;;;;;;;14.70;99.90;;;;;;5051922;28;19934;-65
2022/05/26 03:52:54;;;;;;;;;;;14.80;99.90;;;;;;5052198;28;19987;-65
2022/05/26 03:55:23;;;;;;;;;;;14.70;99.90;;;;;;5051929;28;19935;-65
2022/05/26 03:57:49;;;;;;;;;;;14.80;99.90;;;;;;5052221;28;19933;-65
2022/05/26 04:00:17;;;;;;;;;;;14.70;99.90;;;;;;5051662;28;20380;-65
2022/05/26 04:02:44;;;;;;;;;;;14.70;99.90;;;;;;5051851;28;19929;-65
2022/05/26 04:05:12;;;;;;;;;;;14.70;99.90;;;;;;5051867;28;19924;-65
2022/05/26 04:07:39;;;;;;;;;;;14.80;99.90;;;;;;5052043;28;19990;-65
2022/05/26 04:10:07;;;;;;;;;;;14.70;99.90;;;;;;5051465;28;19925;-65
2022/05/26 04:12:35;;;;;;;;;;;14.70;99.90;;;;;;5051834;28;19929;-65
2022/05/26 04:15:03;;;;;;;;;;;14.80;99.90;;;;;;5051854;28;20354;-65
2022/05/26 04:17:30;;;;;;;;;;;14.80;99.90;;;;;;5051660;28;20372;-65
2022/05/26 04:19:57;;;;;;;;;;;14.70;99.90;;;;;;5051175;28;20396;-65
2022/05/26 04:22:24;;;;;;;;;;;14.70;99.90;;;;;;5051632;28;19928;-65
2022/05/26 04:24:54;;;;;;;;;;;14.80;99.90;;;;;;5051302;28;20020;-64
2022/05/26 04:27:22;;;;;;;;;;;14.70;99.90;;;;;;5051500;28;20339;-65
2022/05/26 04:29:50;;;;;;;;;;;14.70;99.90;;;;;;5051187;28;19925;-65
2022/05/26 04:32:16;;;;;;;;;;;14.70;99.90;;;;;;5051294;28;19929;-65
2022/05/26 04:34:45;;;;;;;;;;;14.70;99.90;;;;;;5051311;28;19928;-65
2022/05/26 04:37:12;;;;;;;;;;;14.70;99.90;;;;;;5051083;28;19929;-64
2022/05/26 04:39:39;;;;;;;;;;;14.80;99.90;;;;;;5050918;28;19925;-64
2022/05/26 04:42:06;;;;;;;;;;;14.70;99.90;;;;;;5051126;28;19924;-66
2022/05/26 04:44:34;;;;;;;;;;;14.80;99.90;;;;;;5051002;28;19928;-65
2022/05/26 04:47:02;;;;;;;;;;;14.80;99.90;;;;;;5051447;28;19940;-65
2022/05/26 04:49:29;;;;;;;;;;;14.80;99.90;;;;;;5050303;28;19925;-65
2022/05/26 04:51:57;;;;;;;;;;;14.90;99.90;;;;;;5051136;28;19928;-65
2022/05/26 04:54:24;;;;;;;;;;;15.00;99.90;;;;;;5051126;28;19929;-65
2022/05/26 04:56:51;;;;;;;;;;;15.00;99.90;;;;;;5050912;28;19929;-64
2022/05/26 04:59:18;;;;;;;;;;;15.00;99.90;;;;;;5051848;28;19964;-64
2022/05/26 05:01:45;;;;;;;;;;;14.90;99.90;;;;;;5053371;28;19932;-64
2022/05/26 05:04:13;;;;;;;;;;;15.00;99.90;;;;;;5068621;28;20342;-65
2022/05/26 05:06:40;;;;;;;;;;;15.10;99.90;;;;;;5070583;28;20391;-66
2022/05/26 05:09:06;;;;;;;;;;;15.10;99.90;;;;;;5070399;28;19924;-63
2022/05/26 05:11:33;;;;;;;;;;;15.10;99.90;;;;;;5070370;28;19924;-65
2022/05/26 05:14:01;;;;;;;;;;;15.10;99.90;;;;;;5070334;28;19928;-66
2022/05/26 05:16:30;;;;;;;;;;;15.00;99.90;;;;;;5070819;28;20350;-65
2022/05/26 05:18:57;;;;;;;;;;;15.10;99.90;;;;;;5070492;28;20348;-66
2022/05/26 05:21:28;;;;;;;;;;;15.10;99.90;;;;;;5070226;28;19928;-66
2022/05/26 05:23:57;;;;;;;;;;;15.10;99.90;;;;;;5070207;28;19942;-65
2022/05/26 05:26:25;;;;;;;;;;;15.20;99.90;;;;;;5070377;28;19924;-64
2022/05/26 05:28:54;;;;;;;;;;;15.20;99.90;;;;;;5069929;28;19928;-64
2022/05/26 05:31:25;;;;;;;;;;;15.20;99.90;;;;;;5070288;28;19931;-65
2022/05/26 05:33:54;;;;;;;;;;;15.20;99.90;;;;;;5069953;28;19935;-66
2022/05/26 05:36:22;;;;;;;;;;;15.20;99.90;;;;;;5069947;28;20334;-65
2022/05/26 05:38:50;;;;;;;;;;;15.10;99.90;;;;;;5069974;28;19929;-66
2022/05/26 05:41:18;;;;;;;;;;;15.10;99.90;;;;;;5070094;28;19925;-66
2022/05/26 05:43:45;;;;;;;;;;;15.10;99.90;;;;;;5069722;28;20420;-65
2022/05/26 05:46:14;;;;;;;;;;;15.30;99.90;;;;;;5070128;28;20391;-66
2022/05/26 05:48:43;;;;;;;;;;;15.40;99.90;;;;;;5069944;28;19931;-65
2022/05/26 05:51:10;;;;;;;;;;;15.40;99.90;;;;;;5069565;28;19928;-65
2022/05/26 05:53:37;;;;;;;;;;;15.50;99.90;;;;;;5069855;28;19924;-66
2022/05/26 05:56:05;;;;;;;;;;;15.60;99.90;;;;;;5069991;28;19935;-66
2022/05/26 05:58:32;;;;;;;;;;;15.70;99.90;;;;;;5069772;28;20305;-65
2022/05/26 06:00:59;;;;;;;;;;;15.70;99.90;;;;;;5068991;28;19924;-65
2022/05/26 06:03:31;;;;;;;;;;;15.70;99.90;;;;;;5069511;28;19924;-66
2022/05/26 06:05:59;;;;;;;;;;;15.70;99.90;;;;;;5069835;28;19929;-65
2022/05/26 06:08:25;;;;;;;;;;;15.60;99.90;;;;;;5069775;28;19929;-65
2022/05/26 06:10:52;;;;;;;;;;;15.50;99.90;;;;;;5069640;28;19999;-65
2022/05/26 06:13:20;;;;;;;;;;;15.50;99.90;;;;;;5069760;28;19933;-65
2022/05/26 06:15:47;;;;;;;;;;;15.40;99.90;;;;;;5069563;28;19924;-65
2022/05/26 06:18:16;;;;;;;;;;;15.50;99.90;;;;;;5069755;28;19929;-66
2022/05/26 06:20:43;;;;;;;;;;;15.40;99.90;;;;;;5069708;28;19971;-65
2022/05/26 06:23:09;;;;;;;;;;;15.50;99.90;;;;;;5069695;28;19928;-66
2022/05/26 06:25:36;;;;;;;;;;;15.50;99.90;;;;;;5069427;28;19925;-65
2022/05/26 06:30:49;;;;;;;;;;;15.80;99.90;;;;;;5069190;28;19973;-66
2022/05/26 06:38:45;;;;;;;;;;;15.90;99.90;;;;;;5069487;28;19981;-65
2022/05/26 06:43:58;;;;;;;;;;;16.00;99.90;;;;;;5069518;28;19928;-65
2022/05/26 06:46:26;;;;;;;;;;;16.10;99.90;;;;;;5069630;28;19928;-65
2022/05/26 06:48:53;;;;;;;;;;;16.00;99.90;;;;;;5069095;28;20307;-65
2022/05/26 06:51:20;;;;;;;;;;;15.90;99.90;;;;;;5069713;28;19931;-67
2022/05/26 06:53:48;;;;;;;;;;;15.70;99.90;;;;;;5069292;28;19993;-67
2022/05/26 06:56:15;;;;;;;;;;;15.90;99.90;;;;;;5069567;28;19964;-65
2022/05/26 06:58:42;;;;;;;;;;;16.10;99.90;;;;;;5069476;28;20350;-65
2022/05/26 07:01:09;;;;;;;;;;;16.30;99.90;;;;;;5069428;28;19924;-65
2022/05/26 07:03:37;;;;;;;;;;;16.50;99.90;;;;;;5068944;28;19932;-65
2022/05/26 07:06:04;;;;;;;;;;;16.40;99.90;;;;;;5069250;28;19929;-65
2022/05/26 07:08:30;;;;;;;;;;;16.60;99.90;;;;;;5069470;28;19928;-65
2022/05/26 07:11:00;;;;;;;;;;;16.40;99.90;;;;;;5069240;28;19928;-64
2022/05/26 07:13:27;;;;;;;;;;;16.40;99.90;;;;;;5072788;28;20028;-66
2022/05/26 07:15:54;;;;;;;;;;;16.30;99.90;;;;;;5072947;28;19928;-65
2022/05/26 07:18:21;;;;;;;;;;;16.20;99.90;;;;;;5072648;28;19935;-66
2022/05/26 07:20:49;;;;;;;;;;;16.30;99.90;;;;;;5072434;28;19928;-66
2022/05/26 07:23:16;;;;;;;;;;;16.40;99.90;;;;;;5072936;28;20441;-66
2022/05/26 07:25:43;;;;;;;;;;;16.50;99.90;;;;;;5072826;28;19925;-65
2022/05/26 07:28:12;;;;;;;;;;;16.70;99.90;;;;;;5072700;28;20342;-65
2022/05/26 07:30:39;;;;;;;;;;;16.80;99.90;;;;;;5072722;28;19931;-65
2022/05/26 07:33:05;;;;;;;;;;;16.60;99.90;;;;;;5072538;28;19924;-65
2022/05/26 07:35:32;;;;;;;;;;;16.70;99.90;;;;;;5072778;28;19932;-65
2022/05/26 07:43:31;;;;;;;;;;;16.80;99.90;;;;;;5072140;28;19924;-65
2022/05/26 07:45:59;;;;;;;;;;;16.60;99.90;;;;;;5072866;28;19928;-65
2022/05/26 07:48:26;;;;;;;;;;;16.60;99.90;;;;;;5072493;28;19924;-65
2022/05/26 07:50:52;;;;;;;;;;;16.60;99.90;;;;;;5072096;28;19979;-65
2022/05/26 07:53:21;;;;;;;;;;;16.80;99.90;;;;;;5072296;28;20449;-65
2022/05/26 07:55:47;;;;;;;;;;;16.70;99.90;;;;;;5071767;28;20354;-65
2022/05/26 07:58:14;;;;;;;;;;;16.70;99.90;;;;;;5071922;28;19928;-65
2022/05/26 08:00:41;;;;;;;;;;;17.00;99.90;;;;;;5071905;28;19932;-66
2022/05/26 08:03:09;;;;;;;;;;;17.00;99.90;;;;;;5071880;28;19974;-65
2022/05/26 08:05:37;;;;;;;;;;;17.20;99.90;;;;;;5072376;28;19982;-65
2022/05/26 08:08:04;;;;;;;;;;;17.10;99.90;;;;;;5071849;28;19928;-65
2022/05/26 08:10:32;;;;;;;;;;;17.10;99.90;;;;;;5071276;28;19932;-65
2022/05/26 08:12:59;;;;;;;;;;;17.00;99.90;;;;;;5071698;28;19931;-65
2022/05/26 08:15:26;;;;;;;;;;;17.20;99.90;;;;;;5071743;28;19928;-66
2022/05/26 08:17:53;;;;;;;;;;;17.20;99.90;;;;;;5071475;28;19925;-65
2022/05/26 08:20:20;;;;;;;;;;;17.00;99.90;;;;;;5071405;28;19925;-65
2022/05/26 08:22:47;;;;;;;;;;;17.10;99.90;;;;;;5071029;28;20400;-65
2022/05/26 08:25:13;;;;;;;;;;;17.20;99.90;;;;;;5071271;28;19924;-65
2022/05/26 08:27:42;;;;;;;;;;;17.10;99.90;;;;;;5071827;28;19924;-65
2022/05/26 08:30:09;;;;;;;;;;;17.10;99.90;;;;;;5070938;28;19928;-65
2022/05/26 08:32:36;;;;;;;;;;;17.20;99.90;;;;;;5071439;28;19925;-65
2022/05/26 08:35:04;;;;;;;;;;;17.00;99.90;;;;;;5070981;28;19928;-65
2022/05/26 08:37:31;;;;;;;;;;;16.80;99.90;;;;;;5071347;28;20391;-65
2022/05/26 08:39:58;;;;;;;;;;;16.90;99.90;;;;;;5070655;28;20352;-66
2022/05/26 08:42:26;;;;;;;;;;;16.80;99.90;;;;;;5071401;28;19936;-65
2022/05/26 08:44:55;;;;;;;;;;;17.00;99.90;;;;;;5071117;28;19924;-65
2022/05/26 08:47:23;;;;;;;;;;;17.30;99.90;;;;;;5071028;28;19928;-66
2022/05/26 08:49:53;;;;;;;;;;;17.60;99.90;;;;;;5070663;28;19951;-65
2022/05/26 08:52:21;;;;;;;;;;;17.90;99.90;;;;;;5069637;28;19974;-64
2022/05/26 08:54:50;;;;;;;;;;;18.10;99.90;;;;;;5070461;28;19931;-66
2022/05/26 08:57:19;;;;;;;;;;;18.20;99.90;;;;;;5071039;28;20380;-65
2022/05/26 08:59:46;;;;;;;;;;;18.50;99.90;;;;;;5070640;28;20420;-65
2022/05/26 09:02:21;;;;;;;;;;;18.40;99.90;;;;;;5070666;28;19924;-65
2022/05/26 09:04:48;;;;;;;;;;;18.30;99.90;;;;;;5070572;28;20340;-65
2022/05/26 09:12:59;;;;;;;;;;;18.20;99.90;;;;;;5050765;28;19968;-66
2022/05/26 09:15:26;;;;;;;;;;;18.50;99.90;;;;;;5050387;28;19924;-65
2022/05/26 09:17:55;;;;;;;;;;;18.50;99.90;;;;;;5050549;28;20411;-65
2022/05/26 09:20:28;;;;;;;;;;;18.40;99.90;;;;;;5050160;28;19925;-65
2022/05/26 09:22:55;;;;;;;;;;;18.30;99.90;;;;;;5050619;28;19932;-65
2022/05/26 09:25:33;;;;;;;;;;;18.20;99.90;;;;;;5050308;28;19925;-65
2022/05/26 09:28:01;;;;;;;;;;;18.20;99.90;;;;;;5050202;28;19932;-65
2022/05/26 09:30:29;;;;;;;;;;;18.30;99.90;;;;;;5050104;28;20040;-64
2022/05/26 09:32:58;;;;;;;;;;;18.50;99.90;;;;;;5050555;28;19971;-65
2022/05/26 09:35:26;;;;;;;;;;;18.50;99.90;;;;;;5049174;28;19990;-66
2022/05/26 09:37:54;;;;;;;;;;;18.60;99.90;;;;;;5050211;28;19967;-66
2022/05/26 09:40:22;;;;;;;;;;;18.60;99.90;;;;;;5049798;28;19956;-67
2022/05/26 09:42:51;;;;;;;;;;;18.60;99.90;;;;;;5049929;28;19932;-65
2022/05/26 09:45:20;;;;;;;;;;;18.90;99.90;;;;;;5049866;28;19925;-65
2022/05/26 09:47:53;;;;;;;;;;;19.00;99.90;;;;;;5050101;28;19925;-65
2022/05/26 09:50:39;;;;;;;;;;;18.90;99.90;;;;;;5049897;28;20277;-65
2022/05/26 09:53:08;;;;;;;;;;;18.90;99.90;;;;;;5050105;28;19933;-65
2022/05/26 09:55:41;;;;;;;;;;;19.00;99.90;;;;;;5049554;28;19925;-65
2022/05/26 09:58:09;;;;;;;;;;;19.00;99.90;;;;;;5050023;28;19925;-65
2022/05/26 10:00:41;;;;;;;;;;;18.80;99.90;;;;;;5049652;28;19955;-65
2022/05/26 10:03:13;;;;;;;;;;;18.90;99.90;;;;;;5049971;28;20070;-65
2022/05/26 10:05:43;;;;;;;;;;;19.20;99.90;;;;;;5049647;28;19929;-65
2022/05/26 10:08:13;;;;;;;;;;;19.20;99.90;;;;;;5050001;28;19931;-65
2022/05/26 10:10:44;;;;;;;;;;;19.40;99.90;;;;;;5050366;28;19929;-65
2022/05/26 10:13:27;;;;;;;;;;;19.70;99.90;;;;;;5049672;28;19947;-65
2022/05/26 10:15:58;;;;;;;;;;;19.50;99.90;;;;;;5049770;28;19952;-65
2022/05/26 10:18:38;;;;;;;;;;;19.50;99.90;;;;;;5049857;28;19924;-66
2022/05/26 10:21:10;;;;;;;;;;;19.30;99.90;;;;;;5049622;28;19924;-66
2022/05/26 10:23:47;;;;;;;;;;;19.20;99.90;;;;;;5049208;28;19925;-66
2022/05/26 10:26:18;;;;;;;;;;;19.50;99.90;;;;;;5049616;28;20340;-66
2022/05/26 10:29:02;;;;;;;;;;;19.80;99.90;;;;;;5049284;28;19925;-66
2022/05/26 10:31:36;;;;;;;;;;;20.00;99.90;;;;;;5049801;28;19928;-65
2022/05/26 10:34:16;;;;;;;;;;;19.90;99.90;;;;;;5049113;28;19929;-66
2022/05/26 10:36:56;;;;;;;;;;;19.60;99.90;;;;;;5049559;28;19979;-66
2022/05/26 10:39:31;;;;;;;;;;;19.50;99.90;;;;;;5049228;28;19933;-66
2022/05/26 10:42:00;;;;;;;;;;;19.80;99.90;;;;;;5050334;28;19931;-65
2022/05/26 10:44:29;;;;;;;;;;;20.00;99.90;;;;;;5049603;28;19929;-64
2022/05/26 10:47:00;;;;;;;;;;;19.90;99.90;;;;;;5051240;28;19944;-65
2022/05/26 10:49:32;;;;;;;;;;;19.70;99.90;;;;;;5053205;28;19929;-65
2022/05/26 10:52:00;;;;;;;;;;;19.50;99.90;;;;;;5053624;28;19986;-65
2022/05/26 10:54:30;;;;;;;;;;;19.70;99.90;;;;;;5053271;28;19967;-65
2022/05/26 10:57:01;;;;;;;;;;;20.10;99.90;;;;;;5053686;28;19979;-65
2022/05/26 10:59:30;;;;;;;;;;;19.90;99.90;;;;;;5053025;28;19925;-65
2022/05/26 11:01:58;;;;;;;;;;;19.90;99.90;;;;;;5053506;28;19929;-65
2022/05/26 11:04:28;;;;;;;;;;;20.00;99.90;;;;;;5053017;28;20500;-65
2022/05/26 11:06:57;;;;;;;;;;;20.20;99.90;;;;;;5053262;28;19931;-65
2022/05/26 11:09:30;;;;;;;;;;;19.80;99.90;;;;;;5052808;28;19975;-64
2022/05/26 11:12:01;;;;;;;;;;;20.00;99.90;;;;;;5068020;28;20031;-65
2022/05/26 11:17:24;;;;;;;;;;;20.30;99.90;;;;;;5073049;28;19929;-65
2022/05/26 11:19:52;;;;;;;;;;;20.30;99.90;;;;;;5072670;28;19931;-65
2022/05/26 11:22:19;;;;;;;;;;;20.70;99.90;;;;;;5072932;28;19924;-65
2022/05/26 11:24:48;;;;;;;;;;;20.80;99.90;;;;;;5072694;28;19958;-65
2022/05/26 11:27:18;;;;;;;;;;;20.80;99.90;;;;;;5072553;28;20392;-64
2022/05/26 11:29:50;;;;;;;;;;;20.30;99.90;;;;;;5072099;28;19931;-65
2022/05/26 11:37:57;;;;;;;;;;;21.00;99.90;;;;;;5072439;28;19921;-66
2022/05/26 11:40:29;;;;;;;;;;;21.80;99.90;;;;;;5071937;28;19924;-66
2022/05/26 11:42:58;;;;;;;;;;;22.50;99.90;;;;;;5072260;28;19924;-65
2022/05/26 11:45:27;;;;;;;;;;;23.10;99.90;;;;;;5072024;28;19964;-66
2022/05/26 11:47:55;;;;;;;;;;;23.30;99.90;;;;;;5072236;28;20457;-66
2022/05/26 11:50:28;;;;;;;;;;;23.40;99.90;;;;;;5072338;28;19968;-66
2022/05/26 11:53:15;;;;;;;;;;;22.70;99.90;;;;;;5072221;28;19924;-66
2022/05/26 11:55:50;;;;;;;;;;;23.00;99.90;;;;;;5072165;28;20284;-65
2022/05/26 11:58:27;;;;;;;;;;;23.80;99.90;;;;;;5070809;28;19935;-66
2022/05/26 12:01:09;;;;;;;;;;;23.20;99.90;;;;;;5072198;28;19998;-66
2022/05/26 12:03:48;;;;;;;;;;;23.80;99.90;;;;;;5071573;28;19936;-66
2022/05/26 12:06:16;;;;;;;;;;;24.50;99.90;;;;;;5072245;28;19981;-65
2022/05/26 12:08:46;;;;;;;;;;;25.40;99.90;;;;;;5072049;28;19931;-66
2022/05/26 12:11:15;;;;;;;;;;;25.40;99.90;;;;;;5071384;28;19933;-66
2022/05/26 12:13:44;;;;;;;;;;;25.80;99.90;;;;;;5071209;28;19925;-66
2022/05/26 12:16:22;;;;;;;;;;;24.90;99.90;;;;;;5071966;28;19932;-66
2022/05/26 12:18:50;;;;;;;;;;;23.20;99.90;;;;;;5071766;28;20027;-66
2022/05/26 12:21:19;;;;;;;;;;;23.90;99.90;;;;;;5071592;28;19928;-65
2022/05/26 12:23:45;;;;;;;;;;;24.20;99.90;;;;;;5071308;28;19928;-66
2022/05/26 12:26:29;;;;;;;;;;;23.70;99.90;;;;;;5071567;28;20281;-66
2022/05/26 12:29:18;;;;;;;;;;;23.10;99.90;;;;;;5071491;28;20011;-64
2022/05/26 12:31:59;;;;;;;;;;;22.60;99.90;;;;;;5071259;28;19932;-65
2022/05/26 12:34:27;;;;;;;;;;;22.40;99.90;;;;;;5070210;28;20292;-65
2022/05/26 12:37:01;;;;;;;;;;;22.80;99.90;;;;;;5071493;28;19978;-64
2022/05/26 12:39:49;;;;;;;;;;;22.30;99.90;;;;;;5071003;28;20109;-64
2022/05/26 12:42:20;;;;;;;;;;;22.40;99.90;;;;;;5054190;28;19932;-64
2022/05/26 12:44:57;;;;;;;;;;;22.70;99.90;;;;;;5070910;28;19924;-64
2022/05/26 12:47:36;;;;;;;;;;;22.20;99.90;;;;;;5071008;28;20023;-65
2022/05/26 12:50:05;;;;;;;;;;;22.70;99.90;;;;;;5070832;28;19956;-65
2022/05/26 12:52:33;;;;;;;;;;;24.00;99.90;;;;;;5071214;28;19924;-65
2022/05/26 12:55:07;;;;;;;;;;;24.90;99.90;;;;;;5070612;28;19932;-65
2022/05/26 12:57:35;;;;;;;;;;;25.70;99.90;;;;;;5070815;28;19932;-65
2022/05/26 13:00:21;;;;;;;;;;;26.10;99.90;;;;;;5070660;28;19932;-65
2022/05/26 13:02:51;;;;;;;;;;;25.40;99.90;;;;;;5070801;28;19924;-65
2022/05/26 13:05:18;;;;;;;;;;;25.40;99.90;;;;;;5070412;28;19924;-65
2022/05/26 13:07:47;;;;;;;;;;;25.30;99.90;;;;;;5070762;28;19973;-65
2022/05/26 13:10:14;;;;;;;;;;;24.40;99.90;;;;;;5069810;28;19924;-65
2022/05/26 13:12:41;;;;;;;;;;;23.80;99.90;;;;;;5070726;28;19929;-65
2022/05/26 13:15:09;;;;;;;;;;;24.00;99.90;;;;;;5070233;28;19924;-64
2022/05/26 13:17:46;;;;;;;;;;;24.10;99.90;;;;;;5070713;28;19928;-65
2022/05/26 13:20:22;;;;;;;;;;;24.70;99.90;;;;;;5070246;28;19925;-65
2022/05/26 13:22:49;;;;;;;;;;;25.50;99.90;;;;;;5070642;28;19942;-65
2022/05/26 13:25:16;;;;;;;;;;;26.00;99.90;;;;;;5069814;28;19928;-65
2022/05/26 13:27:46;;;;;;;;;;;24.90;99.90;;;;;;5070579;28;19947;-65
2022/05/26 13:33:08;;;;;;;;;;;23.30;99.90;;;;;;5070585;28;19931;-65
2022/05/26 13:35:41;;;;;;;;;;;23.10;99.90;;;;;;5070219;28;20384;-65
2022/05/26 13:38:19;;;;;;;;;;;23.30;99.90;;;;;;5070348;28;20027;-65
2022/05/26 13:40:46;;;;;;;;;;;24.80;99.90;;;;;;5069761;28;19932;-65
2022/05/26 13:43:13;;;;;;;;;;;25.00;99.90;;;;;;5070124;28;19928;-65
2022/05/26 13:45:43;;;;;;;;;;;24.80;99.90;;;;;;5069953;28;19928;-65
2022/05/26 13:48:36;;;;;;;;;;;24.30;99.90;;;;;;5070106;28;19925;-65
2022/05/26 13:51:17;;;;;;;;;;;24.20;99.90;;;;;;5023065;28;19924;-65
2022/05/26 13:53:45;;;;;;;;;;;23.90;99.90;;;;;;5069779;28;19928;-65
2022/05/26 13:56:16;;;;;;;;;;;23.70;99.90;;;;;;5070298;28;19924;-65
2022/05/26 13:58:45;;;;;;;;;;;24.10;99.90;;;;;;5070120;28;20374;-65
2022/05/26 14:01:13;;;;;;;;;;;23.80;99.90;;;;;;5070089;28;19924;-65
2022/05/26 14:03:41;;;;;;;;;;;23.30;99.90;;;;;;5069791;28;19924;-64
2022/05/26 14:06:09;;;;;;;;;;;22.80;99.90;;;;;;5069795;28;20391;-64
2022/05/26 14:08:48;;;;;;;;;;;22.80;99.90;;;;;;5070040;28;19924;-65
2022/05/26 14:11:32;;;;;;;;;;;23.20;99.90;;;;;;5069859;28;19931;-65
2022/05/26 14:14:14;;;;;;;;;;;22.90;99.90;;;;;;5063055;28;19928;-65
2022/05/26 14:16:41;;;;;;;;;;;23.50;99.90;;;;;;5069154;28;19933;-65
2022/05/26 14:19:08;;;;;;;;;;;23.80;99.90;;;;;;5070006;28;19938;-65
2022/05/26 14:21:35;;;;;;;;;;;24.00;99.90;;;;;;5071185;28;19924;-65
2022/05/26 14:24:05;;;;;;;;;;;24.50;99.90;;;;;;5073568;28;19924;-65
2022/05/26 14:26:33;;;;;;;;;;;25.30;99.90;;;;;;5074091;28;20406;-65
2022/05/26 14:29:00;;;;;;;;;;;24.90;99.90;;;;;;5073687;28;19932;-65
2022/05/26 14:31:28;;;;;;;;;;;24.80;99.90;;;;;;5073810;28;19932;-65
2022/05/26 14:33:56;;;;;;;;;;;25.70;99.90;;;;;;5073736;28;19974;-65
2022/05/26 14:36:23;;;;;;;;;;;25.60;99.90;;;;;;5074018;28;19950;-65
2022/05/26 14:38:49;;;;;;;;;;;26.00;99.90;;;;;;5073813;28;19924;-65
2022/05/26 14:41:18;;;;;;;;;;;25.10;99.90;;;;;;5073702;28;20446;-65
2022/05/26 14:43:46;;;;;;;;;;;23.90;99.90;;;;;;5072969;28;19929;-65
2022/05/26 14:46:12;;;;;;;;;;;23.40;99.90;;;;;;5073580;28;19925;-65
2022/05/26 14:48:41;;;;;;;;;;;23.70;99.90;;;;;;5073552;28;19924;-65
2022/05/26 14:51:08;;;;;;;;;;;24.00;99.90;;;;;;5073287;28;20295;-65
2022/05/26 14:56:21;;;;;;;;;;;24.00;99.90;;;;;;5071840;28;20328;-65
2022/05/26 14:58:48;;;;;;;;;;;23.90;99.90;;;;;;5073023;28;19939;-65
2022/05/26 15:01:15;;;;;;;;;;;23.30;99.90;;;;;;5073323;28;19924;-65
2022/05/26 15:03:41;;;;;;;;;;;23.20;99.90;;;;;;5072862;28;20465;-65
2022/05/26 15:06:08;;;;;;;;;;;23.30;99.90;;;;;;5073005;28;19924;-65
2022/05/26 15:08:41;;;;;;;;;;;23.50;99.90;;;;;;5072991;28;19925;-65
2022/05/26 15:11:08;;;;;;;;;;;24.50;99.90;;;;;;5072623;28;19928;-66
2022/05/26 15:13:36;;;;;;;;;;;24.70;99.90;;;;;;5072640;28;19924;-65
2022/05/26 15:16:04;;;;;;;;;;;24.70;99.90;;;;;;5073161;28;19924;-65